Time;durP1;ratioP1;P1;durP2;ratioP2;P2;SDS_P1;SDS_P2;PMS_P1;PMS_P2;Temp;Humidity;BMP_temperature;BMP_pressure;BME280_temperature;BME280_humidity;BME280_pressure;Samples;Min_cycle;Max_cycle;Signal;HPM_P1;HPM_P2
2021/11/10 00:01:35;;;;;;;;;;;;;;;4.31;80.47;101855.69;1625265;86;21193;-76
2021/11/10 00:04:01;;;;;;;;;;;;;;;4.30;80.42;101852.70;1626649;86;20468;-76
2021/11/10 00:06:27;;;;;;;;;;;;;;;4.33;80.53;101860.02;1622019;86;20147;-76
2021/11/10 00:08:55;;;;;;;;;;;;;;;4.33;80.52;101846.94;1624282;86;20829;-77
2021/11/10 00:11:21;;;;;;;;;;;;;;;4.30;80.53;101843.55;1623254;86;20132;-76
2021/11/10 00:13:49;;;;;;;;;;;;;;;4.24;80.58;101842.54;1621769;86;21215;-76
2021/11/10 00:16:16;;;;;;;;;;;;;;;4.27;80.47;101842.39;1624373;86;20151;-78
2021/11/10 00:18:42;;;;;;;;;;;;;;;4.28;80.50;101833.61;1624219;86;20205;-78
2021/11/10 00:21:08;;;;;;;;;;;;;;;4.35;80.49;101837.23;1627721;86;20135;-83
2021/11/10 00:23:34;;;;;;;;;;;;;;;4.34;80.64;101843.41;1627991;86;20162;-78
2021/11/10 00:26:01;;;;;;;;;;;;;;;4.26;80.82;101834.15;1629244;86;22445;-79
2021/11/10 00:28:28;;;;;;;;;;;;;;;4.34;80.69;101835.56;1633655;86;20702;-80
2021/11/10 00:30:57;;;;;;;;;;;;;;;4.35;80.73;101830.70;1634878;86;20095;-79
2021/11/10 00:33:24;;;;;;;;;;;;;;;4.30;80.83;101829.17;1635646;86;20178;-77
2021/11/10 00:35:50;;;;;;;;;;;;;;;4.33;80.67;101829.94;1635887;86;20467;-77
2021/11/10 00:38:17;;;;;;;;;;;;;;;4.31;80.68;101830.84;1632939;86;21110;-77
2021/11/10 00:40:43;;;;;;;;;;;;;;;4.27;80.82;101826.70;1633870;86;20203;-84
2021/11/10 00:43:10;;;;;;;;;;;;;;;4.31;80.75;101822.16;1640045;86;20130;-77
2021/11/10 00:45:35;;;;;;;;;;;;;;;4.29;80.75;101823.55;1637197;86;20227;-78
2021/11/10 00:48:01;;;;;;;;;;;;;;;4.30;80.90;101817.41;1634875;86;20206;-79
2021/11/10 00:50:27;;;;;;;;;;;;;;;4.33;80.81;101822.09;1634340;86;20937;-77
2021/11/10 00:52:52;;;;;;;;;;;;;;;4.29;80.83;101821.40;1636332;86;20269;-78
2021/11/10 00:55:20;;;;;;;;;;;;;;;4.34;80.74;101815.95;1636048;86;20129;-76
2021/11/10 00:57:47;;;;;;;;;;;;;;;4.23;80.76;101813.37;1637553;86;20486;-76
2021/11/10 01:00:13;;;;;;;;;;;;;;;4.28;80.67;101813.16;1635723;86;20213;-83
2021/11/10 01:02:41;;;;;;;;;;;;;;;4.25;80.75;101811.52;1633362;85;21099;-77
2021/11/10 01:05:08;;;;;;;;;;;;;;;4.25;80.56;101804.98;1637814;86;20482;-80
2021/11/10 01:07:36;;;;;;;;;;;;;;;4.22;80.74;101801.22;1635628;86;20469;-78
2021/11/10 01:10:04;;;;;;;;;;;;;;;4.22;80.72;101789.92;1635499;86;20644;-81
2021/11/10 01:12:30;;;;;;;;;;;;;;;4.23;80.91;101785.92;1639213;86;20171;-77
2021/11/10 01:14:58;;;;;;;;;;;;;;;4.24;80.62;101783.70;1634354;86;21182;-78
2021/11/10 01:17:25;;;;;;;;;;;;;;;4.25;80.89;101780.62;1636810;86;20134;-77
2021/11/10 01:19:51;;;;;;;;;;;;;;;4.24;80.72;101774.55;1637654;86;20134;-78
2021/11/10 01:22:18;;;;;;;;;;;;;;;4.24;80.89;101770.62;1631612;86;20710;-79
2021/11/10 01:24:44;;;;;;;;;;;;;;;4.21;80.96;101772.09;1624461;86;20214;-78
2021/11/10 01:27:09;;;;;;;;;;;;;;;4.23;81.00;101780.69;1624819;86;21096;-78
2021/11/10 01:29:35;;;;;;;;;;;;;;;4.24;81.14;101788.94;1626958;86;20560;-78
2021/11/10 01:32:01;;;;;;;;;;;;;;;4.24;81.16;101792.86;1624834;86;20146;-80
2021/11/10 01:34:27;;;;;;;;;;;;;;;4.27;80.73;101788.78;1612623;87;20301;-78
2021/11/10 01:36:52;;;;;;;;;;;;;;;4.21;80.49;101786.47;1627966;86;20145;-78
2021/11/10 01:39:22;;;;;;;;;;;;;;;4.17;80.63;101792.75;1634636;86;21167;-78
2021/11/10 01:41:50;;;;;;;;;;;;;;;4.22;80.59;101786.83;1626302;86;20154;-78
2021/11/10 01:44:21;;;;;;;;;;;;;;;4.18;80.42;101785.75;1610364;88;20200;-79
2021/11/10 01:46:46;;;;;;;;;;;;;;;4.16;80.53;101791.05;1607320;87;20926;-79
2021/11/10 01:49:14;;;;;;;;;;;;;;;4.13;80.58;101791.20;1622387;87;20155;-76
2021/11/10 01:51:51;;;;;;;;;;;;;;;4.03;80.82;101793.41;1632415;86;21204;-77
2021/11/10 01:54:17;;;;;;;;;;;;;;;3.99;81.14;101793.16;1627425;86;20203;-78
2021/11/10 01:56:43;;;;;;;;;;;;;;;4.02;81.22;101800.02;1664140;85;20220;-79
2021/11/10 01:59:09;;;;;;;;;;;;;;;4.05;81.07;101796.80;1662915;84;20121;-79
2021/11/10 02:01:45;;;;;;;;;;;;;;;4.09;80.89;101788.36;1646974;84;20210;-77
2021/11/10 02:04:10;;;;;;;;;;;;;;;4.10;80.83;101787.42;1670573;84;21188;-79
2021/11/10 02:06:37;;;;;;;;;;;;;;;4.07;80.85;101779.73;1639251;85;20789;-79
2021/11/10 02:09:06;;;;;;;;;;;;;;;4.08;80.82;101768.36;1657993;84;20206;-80
2021/11/10 02:11:32;;;;;;;;;;;;;;;4.06;80.84;101768.91;1663706;85;20180;-76
2021/11/10 02:13:59;;;;;;;;;;;;;;;4.10;80.68;101762.59;1659587;85;20185;-81
2021/11/10 02:16:27;;;;;;;;;;;;;;;4.11;80.77;101765.59;1664225;85;21961;-78
2021/11/10 02:18:54;;;;;;;;;;;;;;;4.02;80.92;101769.97;1662137;84;20249;-79
2021/11/10 02:21:22;;;;;;;;;;;;;;;4.11;80.74;101761.68;1661522;84;20129;-78
2021/11/10 02:23:48;;;;;;;;;;;;;;;4.05;80.87;101771.12;1642405;86;20704;-81
2021/11/10 02:26:18;;;;;;;;;;;;;;;4.06;80.88;101774.13;1616126;86;20143;-81
2021/11/10 02:28:43;;;;;;;;;;;;;;;4.06;80.84;101776.75;1641084;86;21713;-76
2021/11/10 02:31:10;;;;;;;;;;;;;;;4.09;80.69;101771.38;1638403;86;20160;-79
2021/11/10 02:33:36;;;;;;;;;;;;;;;4.06;80.80;101763.20;1636215;85;20200;-79
2021/11/10 02:36:06;;;;;;;;;;;;;;;4.02;81.10;101768.19;1644734;86;20124;-77
2021/11/10 02:38:32;;;;;;;;;;;;;;;3.91;81.37;101759.55;1638129;86;20598;-77
2021/11/10 02:40:59;;;;;;;;;;;;;;;3.91;81.73;101760.86;1635588;86;21110;-77
2021/11/10 02:43:27;;;;;;;;;;;;;;;3.95;81.63;101753.73;1648896;85;20192;-77
2021/11/10 02:45:54;;;;;;;;;;;;;;;3.95;81.69;101765.03;1642555;85;20290;-80
2021/11/10 02:48:21;;;;;;;;;;;;;;;3.98;81.68;101773.63;1648512;86;20188;-82
2021/11/10 02:50:47;;;;;;;;;;;;;;;4.00;81.53;101769.20;1636667;86;20286;-82
2021/11/10 02:53:14;;;;;;;;;;;;;;;3.94;81.68;101773.78;1638412;86;21183;-78
2021/11/10 02:55:40;;;;;;;;;;;;;;;3.95;81.66;101767.64;1644592;86;20196;-79
2021/11/10 02:58:05;;;;;;;;;;;;;;;3.94;81.56;101762.48;1618054;86;20140;-82
2021/11/10 03:00:33;;;;;;;;;;;;;;;3.92;81.72;101762.56;1643443;86;20506;-77
2021/11/10 03:03:02;;;;;;;;;;;;;;;3.97;81.60;101762.34;1635673;86;20255;-85
2021/11/10 03:05:31;;;;;;;;;;;;;;;3.92;81.76;101752.11;1618705;86;20162;-76
2021/11/10 03:07:56;;;;;;;;;;;;;;;3.95;81.79;101760.27;1643323;86;20123;-78
2021/11/10 03:10:22;;;;;;;;;;;;;;;3.93;81.70;101759.04;1642449;86;20819;-77
2021/11/10 03:12:48;;;;;;;;;;;;;;;3.95;81.57;101765.03;1645409;86;20183;-85
2021/11/10 03:15:14;;;;;;;;;;;;;;;4.00;81.41;101756.13;1641919;86;20266;-80
2021/11/10 03:17:39;;;;;;;;;;;;;;;3.98;81.44;101748.36;1616151;86;21144;-80
2021/11/10 03:20:07;;;;;;;;;;;;;;;3.93;81.73;101761.66;1637273;86;20672;-79
2021/11/10 03:22:34;;;;;;;;;;;;;;;3.88;81.82;101751.86;1637913;85;20189;-80
2021/11/10 03:25:00;;;;;;;;;;;;;;;3.89;82.04;101749.64;1647941;84;21345;-79
2021/11/10 03:27:26;;;;;;;;;;;;;;;3.91;82.18;101749.09;1645322;85;20197;-78
2021/11/10 03:29:53;;;;;;;;;;;;;;;3.93;82.26;101737.27;1645709;86;21170;-83
2021/11/10 03:32:21;;;;;;;;;;;;;;;3.94;82.11;101738.49;1645984;85;20126;-79
2021/11/10 03:34:50;;;;;;;;;;;;;;;3.97;81.99;101737.52;1626234;86;20528;-78
2021/11/10 03:37:18;;;;;;;;;;;;;;;4.03;82.21;101748.14;1654388;85;20205;-79
2021/11/10 03:39:44;;;;;;;;;;;;;;;4.01;82.03;101743.42;1647170;85;20209;-79
2021/11/10 03:42:10;;;;;;;;;;;;;;;4.06;81.94;101744.08;1626837;86;21124;-82
2021/11/10 03:44:36;;;;;;;;;;;;;;;4.10;81.76;101736.45;1653499;85;20151;-78
2021/11/10 03:47:02;;;;;;;;;;;;;;;4.15;81.61;101734.47;1651266;85;20213;-79
2021/11/10 03:49:29;;;;;;;;;;;;;;;4.13;81.46;101729.31;1648551;85;20172;-80
2021/11/10 03:51:55;;;;;;;;;;;;;;;4.19;81.36;101728.15;1644199;86;20217;-79
2021/11/10 03:54:21;;;;;;;;;;;;;;;4.18;81.41;101736.94;1649630;85;21988;-83
2021/11/10 03:56:47;;;;;;;;;;;;;;;4.18;81.39;101729.09;1649607;85;20148;-77
2021/11/10 03:59:15;;;;;;;;;;;;;;;4.18;81.44;101734.33;1646729;86;20173;-77
2021/11/10 04:01:40;;;;;;;;;;;;;;;4.19;81.28;101734.69;1647730;85;20167;-80
2021/11/10 04:04:06;;;;;;;;;;;;;;;4.20;81.22;101725.93;1646783;85;20168;-80
2021/11/10 04:06:35;;;;;;;;;;;;;;;4.24;81.06;101728.79;1647198;85;21256;-78
2021/11/10 04:09:01;;;;;;;;;;;;;;;4.18;81.17;101729.09;1646857;85;21096;-79
2021/11/10 04:11:26;;;;;;;;;;;;;;;4.18;81.16;101730.41;1650861;85;20191;-80
2021/11/10 04:13:53;;;;;;;;;;;;;;;4.20;81.21;101735.08;1646476;85;21363;-77
2021/11/10 04:16:21;;;;;;;;;;;;;;;4.20;81.26;101736.86;1646521;85;20205;-81
2021/11/10 04:18:52;;;;;;;;;;;;;;;4.17;81.27;101737.02;1650481;85;21250;-78
2021/11/10 04:21:19;;;;;;;;;;;;;;;4.19;81.17;101735.99;1647868;85;20192;-78
2021/11/10 04:23:48;;;;;;;;;;;;;;;4.18;81.20;101730.41;1630203;85;20162;-81
2021/11/10 04:26:13;;;;;;;;;;;;;;;4.19;81.16;101733.38;1622872;85;20210;-84
2021/11/10 04:28:39;;;;;;;;;;;;;;;4.15;81.29;101730.55;1651088;85;20225;-77
2021/11/10 04:31:05;;;;;;;;;;;;;;;4.18;81.31;101730.41;1655880;85;21182;-79
2021/11/10 04:33:30;;;;;;;;;;;;;;;4.19;81.19;101717.69;1644056;84;20466;-77
2021/11/10 04:35:56;;;;;;;;;;;;;;;4.13;81.49;101716.69;1644740;85;20160;-77
2021/11/10 04:38:21;;;;;;;;;;;;;;;4.10;81.38;101719.45;1650388;85;20150;-83
2021/11/10 04:40:48;;;;;;;;;;;;;;;4.09;81.53;101708.63;1651051;85;20168;-77
2021/11/10 04:43:14;;;;;;;;;;;;;;;4.13;81.44;101710.16;1651552;85;21152;-77
2021/11/10 04:45:42;;;;;;;;;;;;;;;4.08;81.40;101710.84;1642818;85;20213;-80
2021/11/10 04:48:09;;;;;;;;;;;;;;;4.12;81.25;101709.78;1646346;85;20469;-83
2021/11/10 04:50:37;;;;;;;;;;;;;;;4.08;81.06;101705.15;1651330;84;20181;-79
2021/11/10 04:53:03;;;;;;;;;;;;;;;4.04;81.16;101700.14;1630693;86;20210;-84
2021/11/10 04:55:31;;;;;;;;;;;;;;;4.06;81.16;101695.71;1650208;85;21139;-79
2021/11/10 04:57:58;;;;;;;;;;;;;;;4.01;81.08;101695.07;1652320;85;20121;-79
2021/11/10 05:00:24;;;;;;;;;;;;;;;3.97;81.40;101694.86;1651267;85;20240;-79
2021/11/10 05:02:50;;;;;;;;;;;;;;;4.02;81.27;101692.38;1622221;85;21084;-77
2021/11/10 05:05:17;;;;;;;;;;;;;;;4.07;81.24;101692.16;1655127;85;20439;-78
2021/11/10 05:07:45;;;;;;;;;;;;;;;4.04;81.22;101682.72;1621514;86;21246;-77
2021/11/10 05:10:11;;;;;;;;;;;;;;;4.02;81.30;101681.92;1655817;85;20206;-77
2021/11/10 05:12:37;;;;;;;;;;;;;;;4.00;81.46;101685.55;1647749;85;20246;-84
2021/11/10 05:15:05;;;;;;;;;;;;;;;4.04;81.43;101677.93;1652916;85;20144;-79
2021/11/10 05:17:30;;;;;;;;;;;;;;;3.89;81.91;101671.70;1653848;85;20187;-76
2021/11/10 05:19:57;;;;;;;;;;;;;;;3.97;81.89;101672.64;1655380;84;21099;-76
2021/11/10 05:22:22;;;;;;;;;;;;;;;3.99;81.97;101668.17;1649963;85;20386;-78
2021/11/10 05:24:50;;;;;;;;;;;;;;;3.92;82.18;101669.78;1630588;86;20260;-81
2021/11/10 05:27:15;;;;;;;;;;;;;;;3.88;82.26;101666.92;1629187;86;20221;-78
2021/11/10 05:29:41;;;;;;;;;;;;;;;3.93;82.29;101662.77;1633038;86;20144;-78
2021/11/10 05:32:07;;;;;;;;;;;;;;;3.92;82.30;101665.86;1628683;86;21178;-84
2021/11/10 05:34:35;;;;;;;;;;;;;;;3.98;82.18;101656.02;1627076;86;20143;-77
2021/11/10 05:37:02;;;;;;;;;;;;;;;3.98;82.21;101656.87;1628098;86;20205;-78
2021/11/10 05:39:30;;;;;;;;;;;;;;;4.04;82.18;101647.87;1628448;86;20212;-79
2021/11/10 05:41:55;;;;;;;;;;;;;;;4.19;81.94;101649.71;1627037;86;20247;-81
2021/11/10 05:44:21;;;;;;;;;;;;;;;4.12;81.64;101645.73;1627615;86;21104;-84
2021/11/10 05:46:48;;;;;;;;;;;;;;;4.16;81.72;101642.02;1630643;86;20225;-79
2021/11/10 05:49:14;;;;;;;;;;;;;;;4.13;81.34;101644.80;1627832;86;20235;-78
2021/11/10 05:51:40;;;;;;;;;;;;;;;4.11;81.21;101647.48;1626235;86;20195;-79
2021/11/10 05:54:07;;;;;;;;;;;;;;;4.10;81.10;101643.64;1626878;86;20255;-80
2021/11/10 05:56:33;;;;;;;;;;;;;;;4.14;80.98;101643.87;1625164;86;21185;-79
2021/11/10 05:58:59;;;;;;;;;;;;;;;4.10;81.03;101650.17;1627258;86;20525;-78
2021/11/10 06:01:26;;;;;;;;;;;;;;;4.09;80.89;101648.50;1629351;86;20225;-80
2021/11/10 06:03:54;;;;;;;;;;;;;;;4.03;81.23;101654.88;1629043;86;20199;-79
2021/11/10 06:06:21;;;;;;;;;;;;;;;4.04;81.15;101664.42;1630219;86;20211;-77
2021/11/10 06:08:50;;;;;;;;;;;;;;;4.05;81.10;101665.25;1627466;86;21340;-78
2021/11/10 06:11:16;;;;;;;;;;;;;;;4.03;81.18;101667.11;1588245;87;20191;-81
2021/11/10 06:13:41;;;;;;;;;;;;;;;3.97;81.42;101670.03;1579727;89;20740;-78
2021/11/10 06:16:07;;;;;;;;;;;;;;;3.93;81.61;101674.09;1563866;89;20533;-77
2021/11/10 06:18:33;;;;;;;;;;;;;;;3.99;81.66;101669.01;1586211;89;20229;-77
2021/11/10 06:20:59;;;;;;;;;;;;;;;3.94;81.72;101667.92;1587873;89;21084;-88
2021/11/10 06:23:27;;;;;;;;;;;;;;;4.00;81.76;101672.48;1588324;88;20124;-81
2021/11/10 06:25:54;;;;;;;;;;;;;;;4.03;81.73;101673.64;1630142;86;20107;-77
2021/11/10 06:28:20;;;;;;;;;;;;;;;4.09;81.58;101673.34;1623913;86;20235;-85
2021/11/10 06:30:45;;;;;;;;;;;;;;;4.07;81.65;101672.11;1631503;86;20187;-87
2021/11/10 06:33:13;;;;;;;;;;;;;;;4.09;81.72;101670.72;1626736;86;21152;-76
2021/11/10 06:35:39;;;;;;;;;;;;;;;4.12;81.68;101671.88;1598604;88;20444;-78
2021/11/10 06:38:04;;;;;;;;;;;;;;;4.12;81.59;101669.27;1610972;87;20201;-78
2021/11/10 06:40:30;;;;;;;;;;;;;;;4.12;81.92;101666.18;1646597;85;20149;-77
2021/11/10 06:42:57;;;;;;;;;;;;;;;4.22;81.86;101670.47;1624634;86;20612;-78
2021/11/10 06:45:24;;;;;;;;;;;;;;;4.23;81.93;101668.25;1630439;86;22572;-79
2021/11/10 06:47:52;;;;;;;;;;;;;;;4.28;81.97;101668.86;1641910;85;20202;-77
2021/11/10 06:50:18;;;;;;;;;;;;;;;4.30;82.01;101665.73;1639550;85;20522;-77
2021/11/10 06:52:45;;;;;;;;;;;;;;;4.35;81.91;101663.31;1643848;85;20129;-76
2021/11/10 06:55:11;;;;;;;;;;;;;;;4.29;82.08;101665.33;1643036;85;20196;-79
2021/11/10 06:57:37;;;;;;;;;;;;;;;4.31;82.09;101670.02;1644169;85;21099;-78
2021/11/10 07:00:09;;;;;;;;;;;;;;;4.38;82.03;101668.39;1642819;85;20207;-81
2021/11/10 07:02:35;;;;;;;;;;;;;;;4.36;82.19;101665.86;1629827;86;20162;-80
2021/11/10 07:05:00;;;;;;;;;;;;;;;4.46;82.14;101663.63;1642336;86;20645;-79
2021/11/10 07:07:26;;;;;;;;;;;;;;;4.46;82.35;101664.47;1645635;85;20152;-84
2021/11/10 07:09:55;;;;;;;;;;;;;;;4.52;82.30;101664.59;1648815;85;21115;-78
2021/11/10 07:12:22;;;;;;;;;;;;;;;4.60;82.22;101667.68;1641781;85;20214;-79
2021/11/10 07:14:48;;;;;;;;;;;;;;;4.61;82.16;101660.19;1649873;85;20216;-77
2021/11/10 07:17:14;;;;;;;;;;;;;;;4.60;82.30;101660.27;1648629;85;20192;-84
2021/11/10 07:19:43;;;;;;;;;;;;;;;4.83;81.77;101665.16;1624120;86;20475;-79
2021/11/10 07:22:08;;;;;;;;;;;;;;;4.79;82.00;101662.79;1643964;85;20216;-79
2021/11/10 07:24:36;;;;;;;;;;;;;;;4.82;82.17;101654.78;1636673;85;20188;-77
2021/11/10 07:27:02;;;;;;;;;;;;;;;4.93;81.98;101656.34;1619130;87;20531;-79
2021/11/10 07:29:28;;;;;;;;;;;;;;;4.94;82.03;101650.64;1632804;86;20919;-79
2021/11/10 07:31:56;;;;;;;;;;;;;;;4.83;82.51;101641.61;1630220;86;20526;-79
2021/11/10 07:34:22;;;;;;;;;;;;;;;4.89;82.64;101632.56;1633150;86;22072;-78
2021/11/10 07:36:49;;;;;;;;;;;;;;;4.94;82.76;101633.18;1632026;86;20171;-79
2021/11/10 07:39:15;;;;;;;;;;;;;;;4.91;83.18;101632.03;1631727;86;20212;-82
2021/11/10 07:41:41;;;;;;;;;;;;;;;4.99;83.09;101633.77;1633450;86;20261;-81
2021/11/10 07:44:10;;;;;;;;;;;;;;;5.02;83.45;101631.45;1631495;86;20181;-80
2021/11/10 07:46:35;;;;;;;;;;;;;;;5.12;83.71;101640.95;1636091;86;21604;-78
2021/11/10 07:49:01;;;;;;;;;;;;;;;5.16;84.08;101646.41;1639509;86;20280;-79
2021/11/10 07:51:28;;;;;;;;;;;;;;;5.20;84.08;101647.91;1633812;87;20516;-80
2021/11/10 07:54:03;;;;;;;;;;;;;;;5.12;83.87;101655.36;1634687;86;20264;-80
2021/11/10 07:56:30;;;;;;;;;;;;;;;5.11;84.41;101658.45;1632822;86;20195;-78
2021/11/10 07:58:57;;;;;;;;;;;;;;;5.15;84.02;101657.81;1633606;86;21105;-84
2021/11/10 08:01:23;;;;;;;;;;;;;;;5.08;84.29;101651.20;1636850;86;20343;-79
2021/11/10 08:03:50;;;;;;;;;;;;;;;5.18;84.29;101641.92;1629571;86;20226;-82
2021/11/10 08:06:16;;;;;;;;;;;;;;;5.20;84.36;101640.05;1632878;86;20520;-80
2021/11/10 08:08:41;;;;;;;;;;;;;;;5.31;84.40;101639.47;1634571;86;20179;-82
2021/11/10 08:11:07;;;;;;;;;;;;;;;5.40;84.14;101631.93;1612469;87;22109;-81
2021/11/10 08:13:33;;;;;;;;;;;;;;;5.47;84.10;101635.07;1630317;86;20203;-80
2021/11/10 08:15:59;;;;;;;;;;;;;;;5.51;84.09;101629.19;1634439;86;20248;-82
2021/11/10 08:18:25;;;;;;;;;;;;;;;5.51;84.11;101622.63;1637755;86;20199;-81
2021/11/10 08:20:51;;;;;;;;;;;;;;;5.58;84.29;101631.84;1632532;86;20238;-77
2021/11/10 08:23:21;;;;;;;;;;;;;;;5.72;83.85;101627.96;1631569;86;21064;-78
2021/11/10 08:25:50;;;;;;;;;;;;;;;5.78;83.46;101632.47;1637321;86;20144;-77
2021/11/10 08:28:15;;;;;;;;;;;;;;;5.81;83.44;101634.91;1635695;86;20229;-80
2021/11/10 08:30:41;;;;;;;;;;;;;;;5.89;83.48;101637.95;1635903;86;20188;-79
2021/11/10 08:33:07;;;;;;;;;;;;;;;5.94;83.38;101643.77;1631527;86;20357;-79
2021/11/10 08:35:34;;;;;;;;;;;;;;;6.03;83.22;101654.20;1631159;86;21146;-82
2021/11/10 08:38:02;;;;;;;;;;;;;;;6.07;83.10;101646.06;1614308;86;20127;-79
2021/11/10 08:40:30;;;;;;;;;;;;;;;6.10;83.07;101639.80;1634769;86;20282;-81
2021/11/10 08:42:58;;;;;;;;;;;;;;;6.15;83.03;101640.84;1634142;85;20153;-79
2021/11/10 08:45:25;;;;;;;;;;;;;;;6.23;83.09;101638.60;1633510;86;20554;-81
2021/11/10 08:47:53;;;;;;;;;;;;;;;6.27;83.04;101630.94;1630712;86;22524;-79
2021/11/10 08:50:22;;;;;;;;;;;;;;;6.25;83.33;101634.13;1637343;86;20186;-82
2021/11/10 08:52:47;;;;;;;;;;;;;;;6.36;83.26;101623.83;1631463;86;20104;-79
2021/11/10 08:55:15;;;;;;;;;;;;;;;6.44;83.28;101613.70;1613727;87;20851;-82
2021/11/10 08:57:43;;;;;;;;;;;;;;;6.56;83.00;101623.10;1637380;86;20144;-84
2021/11/10 09:00:14;;;;;;;;;;;;;;;6.60;82.86;101618.02;1636899;86;21239;-80
2021/11/10 09:02:39;;;;;;;;;;;;;;;6.64;82.73;101619.05;1634467;86;20175;-83
2021/11/10 09:05:05;;;;;;;;;;;;;;;6.71;82.61;101612.97;1636721;85;20284;-79
2021/11/10 09:07:33;;;;;;;;;;;;;;;6.79;82.44;101604.14;1637755;85;20181;-81
2021/11/10 09:10:01;;;;;;;;;;;;;;;6.77;82.39;101611.25;1633629;86;20480;-80
2021/11/10 09:12:27;;;;;;;;;;;;;;;6.83;82.47;101608.24;1631673;86;20999;-79
2021/11/10 09:14:52;;;;;;;;;;;;;;;6.92;82.51;101612.56;1633021;86;20305;-80
2021/11/10 09:17:19;;;;;;;;;;;;;;;6.88;82.55;101607.95;1635747;86;20606;-79
2021/11/10 09:19:45;;;;;;;;;;;;;;;6.98;82.55;101593.80;1632125;86;20964;-80
2021/11/10 09:22:12;;;;;;;;;;;;;;;7.08;82.46;101589.63;1628759;86;20199;-83
2021/11/10 09:24:43;;;;;;;;;;;;;;;7.15;82.42;101593.56;1642838;85;20121;-79
2021/11/10 09:27:09;;;;;;;;;;;;;;;7.16;82.50;101580.80;1654064;85;20132;-79
2021/11/10 09:29:36;;;;;;;;;;;;;;;7.23;82.67;101580.41;1656936;85;20127;-82
2021/11/10 09:32:03;;;;;;;;;;;;;;;7.32;82.43;101595.10;1654831;83;20137;-80
2021/11/10 09:34:29;;;;;;;;;;;;;;;7.42;82.04;101587.45;1653385;85;20199;-78
2021/11/10 09:36:54;;;;;;;;;;;;;;;7.49;82.12;101575.61;1635700;86;21175;-79
2021/11/10 09:39:21;;;;;;;;;;;;;;;7.59;81.89;101575.00;1637932;86;20490;-79
2021/11/10 09:41:49;;;;;;;;;;;;;;;7.64;81.47;101575.53;1638106;86;20179;-81
2021/11/10 09:44:16;;;;;;;;;;;;;;;7.78;81.81;101570.67;1651900;85;20186;-85
2021/11/10 09:46:43;;;;;;;;;;;;;;;7.91;81.36;101561.84;1653344;85;20185;-78
2021/11/10 09:49:10;;;;;;;;;;;;;;;8.01;81.14;101566.00;1653566;85;21086;-79
2021/11/10 09:51:36;;;;;;;;;;;;;;;8.11;80.89;101566.23;1655482;85;20171;-79
2021/11/10 09:54:05;;;;;;;;;;;;;;;8.20;80.63;101571.33;1655299;85;20227;-79
2021/11/10 09:56:32;;;;;;;;;;;;;;;8.21;80.21;101565.95;1652551;85;20495;-81
2021/11/10 09:58:59;;;;;;;;;;;;;;;8.29;80.25;101558.02;1656733;85;20209;-78
2021/11/10 10:01:25;;;;;;;;;;;;;;;8.42;80.04;101554.88;1632567;85;21854;-81
2021/11/10 10:03:55;;;;;;;;;;;;;;;8.50;79.46;101557.87;1654611;85;20196;-80
2021/11/10 10:06:21;;;;;;;;;;;;;;;8.49;79.39;101546.95;1655028;85;20479;-80
2021/11/10 10:08:47;;;;;;;;;;;;;;;8.62;79.50;101541.66;1651174;86;20959;-81
2021/11/10 10:11:12;;;;;;;;;;;;;;;8.71;79.36;101541.00;1660036;85;20131;-79
2021/11/10 10:13:39;;;;;;;;;;;;;;;8.80;78.86;101534.25;1657602;85;21170;-80
2021/11/10 10:16:10;;;;;;;;;;;;;;;8.87;78.42;101532.86;1653499;85;20336;-83
2021/11/10 10:18:36;;;;;;;;;;;;;;;8.91;78.47;101530.84;1655460;85;20192;-80
2021/11/10 10:21:04;;;;;;;;;;;;;;;9.01;78.37;101523.09;1656245;85;20477;-79
2021/11/10 10:23:45;;;;;;;;;;;;;;;9.09;78.50;101522.05;1655339;85;21101;-77
2021/11/10 10:26:17;;;;;;;;;;;;;;;9.08;78.20;101512.00;1649700;86;21178;-78
2021/11/10 10:28:44;;;;;;;;;;;;;;;9.17;77.90;101507.85;1654360;85;20495;-81
2021/11/10 10:31:18;;;;;;;;;;;;;;;9.25;77.71;101505.48;1635283;86;20451;-78
2021/11/10 10:33:46;;;;;;;;;;;;;;;9.33;77.71;101499.64;1648684;85;20233;-77
2021/11/10 10:36:26;;;;;;;;;;;;;;;9.44;77.41;101497.03;1647535;85;20503;-87
2021/11/10 10:38:53;;;;;;;;;;;;;;;9.53;76.94;101496.82;1656454;85;21167;-78
2021/11/10 10:41:25;;;;;;;;;;;;;;;9.62;77.17;101489.53;1660507;85;39397;-79
2021/11/10 10:43:52;;;;;;;;;;;;;;;9.69;76.81;101491.22;1656808;84;20158;-79
2021/11/10 10:46:22;;;;;;;;;;;;;;;9.79;76.55;101492.66;1658529;85;20174;-85
2021/11/10 10:48:49;;;;;;;;;;;;;;;9.83;75.66;101504.67;1652890;85;20515;-76
2021/11/10 10:51:18;;;;;;;;;;;;;;;9.94;75.93;101490.16;1650571;85;21299;-78
2021/11/10 10:53:50;;;;;;;;;;;;;;;10.01;75.14;101490.05;1652742;85;20597;-80
2021/11/10 10:56:29;;;;;;;;;;;;;;;10.06;75.22;101487.89;1649527;85;20186;-78
2021/11/10 10:59:11;;;;;;;;;;;;;;;10.16;75.11;101488.48;1655067;85;20766;-78
2021/11/10 11:01:42;;;;;;;;;;;;;;;10.28;75.28;101484.88;1653657;85;20535;-78
2021/11/10 11:04:31;;;;;;;;;;;;;;;10.35;75.04;101483.48;1649446;85;21131;-78
2021/11/10 11:07:03;;;;;;;;;;;;;;;10.45;74.40;101478.79;1651942;85;20181;-78
2021/11/10 11:09:37;;;;;;;;;;;;;;;10.53;74.60;101473.72;1650900;85;20150;-78
2021/11/10 11:12:12;;;;;;;;;;;;;;;10.64;74.32;101471.05;1622596;86;20782;-81
2021/11/10 11:17:21;;;;;;;;;;;;;;;10.81;73.38;101463.56;1652642;85;20436;-77
2021/11/10 11:19:50;;;;;;;;;;;;;;;10.81;72.77;101468.85;1652830;85;20177;-78
2021/11/10 11:22:15;;;;;;;;;;;;;;;10.83;71.96;101469.55;1654747;85;20560;-79
2021/11/10 11:24:43;;;;;;;;;;;;;;;10.97;71.96;101469.28;1649289;85;20890;-81
2021/11/10 11:27:26;;;;;;;;;;;;;;;11.08;71.88;101467.91;1650695;85;20473;-78
2021/11/10 11:29:55;;;;;;;;;;;;;;;11.19;71.61;101470.98;1655513;85;21191;-78
2021/11/10 11:32:31;;;;;;;;;;;;;;;11.30;70.77;101464.80;1647977;85;20231;-80
2021/11/10 11:35:03;;;;;;;;;;;;;;;11.41;70.80;101462.09;1653038;85;20451;-78
2021/11/10 11:37:30;;;;;;;;;;;;;;;11.50;69.85;101461.80;1650947;86;20176;-78
2021/11/10 11:40:00;;;;;;;;;;;;;;;11.52;69.91;101460.35;1652075;85;20180;-80
2021/11/10 11:42:28;;;;;;;;;;;;;;;11.60;69.83;101453.92;1651929;85;21102;-76
2021/11/10 11:44:54;;;;;;;;;;;;;;;11.65;69.41;101448.59;1650009;85;20447;-78
2021/11/10 11:47:20;;;;;;;;;;;;;;;11.67;69.60;101436.56;1633545;86;20209;-87
2021/11/10 11:49:47;;;;;;;;;;;;;;;11.74;68.64;101431.07;1650870;85;20633;-77
2021/11/10 11:52:15;;;;;;;;;;;;;;;11.84;69.06;101422.70;1649348;85;20235;-76
2021/11/10 11:54:47;;;;;;;;;;;;;;;11.95;68.46;101410.39;1658127;85;22303;-79
2021/11/10 11:57:15;;;;;;;;;;;;;;;12.00;68.50;101406.84;1649330;85;20175;-79
2021/11/10 11:59:41;;;;;;;;;;;;;;;11.97;68.22;101409.76;1647408;85;20189;-78
2021/11/10 12:02:23;;;;;;;;;;;;;;;12.04;67.64;101405.58;1651580;85;20802;-79
2021/11/10 12:04:49;;;;;;;;;;;;;;;12.19;68.09;101404.23;1654365;85;20219;-79
2021/11/10 12:07:47;;;;;;;;;;;;;;;12.32;67.64;101397.84;1651044;85;21980;-79
2021/11/10 12:10:27;;;;;;;;;;;;;;;12.39;67.23;101389.70;1651599;85;20237;-77
2021/11/10 12:13:13;;;;;;;;;;;;;;;12.50;67.03;101388.25;1651024;85;20208;-79
2021/11/10 12:16:01;;;;;;;;;;;;;;;12.48;66.81;101386.23;1644878;85;20684;-78
2021/11/10 12:18:31;;;;;;;;;;;;;;;12.54;66.36;101379.06;1635118;86;20182;-78
2021/11/10 12:20:59;;;;;;;;;;;;;;;12.64;66.35;101376.41;1647998;85;21778;-83
2021/11/10 12:23:29;;;;;;;;;;;;;;;12.73;66.00;101377.39;1653216;85;20544;-81
2021/11/10 12:26:03;;;;;;;;;;;;;;;12.80;65.90;101369.20;1612031;86;20164;-78
2021/11/10 12:28:51;;;;;;;;;;;;;;;12.84;65.50;101356.03;1623698;86;20214;-78
2021/11/10 12:31:37;;;;;;;;;;;;;;;12.81;65.19;101344.88;1624436;86;20747;-80
2021/11/10 12:34:05;;;;;;;;;;;;;;;13.05;65.09;101342.61;1625567;86;21083;-79
2021/11/10 12:36:53;;;;;;;;;;;;;;;12.97;64.38;101341.64;1622541;87;20148;-77
2021/11/10 12:39:36;;;;;;;;;;;;;;;13.07;63.88;101341.14;1624686;86;20252;-79
2021/11/10 12:42:12;;;;;;;;;;;;;;;13.09;64.50;101337.84;1621844;86;20169;-80
2021/11/10 12:44:40;;;;;;;;;;;;;;;13.14;63.56;101351.50;1625631;86;20198;-79
2021/11/10 12:47:09;;;;;;;;;;;;;;;13.24;63.62;101356.31;1619235;86;21728;-78
2021/11/10 12:49:36;;;;;;;;;;;;;;;13.31;63.32;101350.42;1623642;86;20191;-83
2021/11/10 12:52:12;;;;;;;;;;;;;;;13.39;63.71;101357.20;1627140;86;20680;-80